sensor_id;sensor_type;location;lat;lon;timestamp;P1;durP1;ratioP1;P2;durP2;ratioP2
3733;SDS011;1882;52.256;8.874;2023-04-23T00:00:10;12.13;;;9.07;;
3733;SDS011;1882;52.256;8.874;2023-04-23T00:02:39;11.03;;;9.13;;
3733;SDS011;1882;52.256;8.874;2023-04-23T00:05:10;13.30;;;9.60;;
3733;SDS011;1882;52.256;8.874;2023-04-23T00:07:38;15.27;;;10.60;;
3733;SDS011;1882;52.256;8.874;2023-04-23T00:10:08;15.37;;;11.10;;
3733;SDS011;1882;52.256;8.874;2023-04-23T00:12:36;16.00;;;12.50;;
3733;SDS011;1882;52.256;8.874;2023-04-23T00:15:06;21.50;;;14.90;;
3733;SDS011;1882;52.256;8.874;2023-04-23T00:17:36;21.23;;;14.77;;
3733;SDS011;1882;52.256;8.874;2023-04-23T00:20:04;22.13;;;14.53;;
3733;SDS011;1882;52.256;8.874;2023-04-23T00:22:35;21.63;;;14.80;;
3733;SDS011;1882;52.256;8.874;2023-04-23T00:25:01;23.00;;;15.73;;
3733;SDS011;1882;52.256;8.874;2023-04-23T00:27:29;27.80;;;17.37;;
3733;SDS011;1882;52.256;8.874;2023-04-23T00:29:56;28.53;;;18.00;;
3733;SDS011;1882;52.256;8.874;2023-04-23T00:32:24;30.53;;;19.33;;
3733;SDS011;1882;52.256;8.874;2023-04-23T00:34:51;28.90;;;18.50;;
3733;SDS011;1882;52.256;8.874;2023-04-23T00:37:18;32.13;;;18.97;;
3733;SDS011;1882;52.256;8.874;2023-04-23T00:39:45;33.80;;;19.93;;
3733;SDS011;1882;52.256;8.874;2023-04-23T00:42:15;33.47;;;20.10;;
3733;SDS011;1882;52.256;8.874;2023-04-23T00:44:44;34.80;;;21.00;;
3733;SDS011;1882;52.256;8.874;2023-04-23T00:47:12;36.63;;;20.90;;
3733;SDS011;1882;52.256;8.874;2023-04-23T00:49:39;37.07;;;20.63;;
3733;SDS011;1882;52.256;8.874;2023-04-23T00:52:07;36.50;;;20.67;;
3733;SDS011;1882;52.256;8.874;2023-04-23T00:54:34;35.10;;;21.00;;
3733;SDS011;1882;52.256;8.874;2023-04-23T00:57:01;37.50;;;22.03;;
3733;SDS011;1882;52.256;8.874;2023-04-23T00:59:28;36.97;;;20.77;;
3733;SDS011;1882;52.256;8.874;2023-04-23T01:01:56;37.97;;;21.20;;
3733;SDS011;1882;52.256;8.874;2023-04-23T01:04:24;38.53;;;22.20;;
3733;SDS011;1882;52.256;8.874;2023-04-23T01:06:53;39.33;;;21.83;;
3733;SDS011;1882;52.256;8.874;2023-04-23T01:09:20;40.23;;;21.40;;
3733;SDS011;1882;52.256;8.874;2023-04-23T01:11:48;39.30;;;22.40;;
3733;SDS011;1882;52.256;8.874;2023-04-23T01:14:16;33.93;;;20.27;;
3733;SDS011;1882;52.256;8.874;2023-04-23T01:16:43;38.90;;;22.20;;
3733;SDS011;1882;52.256;8.874;2023-04-23T01:19:10;35.57;;;21.40;;
3733;SDS011;1882;52.256;8.874;2023-04-23T01:21:38;39.83;;;21.80;;
3733;SDS011;1882;52.256;8.874;2023-04-23T01:24:08;43.80;;;23.17;;
3733;SDS011;1882;52.256;8.874;2023-04-23T01:26:35;41.70;;;22.90;;
3733;SDS011;1882;52.256;8.874;2023-04-23T01:29:03;37.33;;;21.50;;
3733;SDS011;1882;52.256;8.874;2023-04-23T01:31:30;38.10;;;21.90;;
3733;SDS011;1882;52.256;8.874;2023-04-23T01:33:58;41.80;;;21.80;;
3733;SDS011;1882;52.256;8.874;2023-04-23T01:36:26;37.93;;;22.20;;
3733;SDS011;1882;52.256;8.874;2023-04-23T01:38:54;40.00;;;22.63;;
3733;SDS011;1882;52.256;8.874;2023-04-23T01:41:20;40.03;;;22.50;;
3733;SDS011;1882;52.256;8.874;2023-04-23T01:43:47;40.03;;;22.00;;
3733;SDS011;1882;52.256;8.874;2023-04-23T01:46:21;41.23;;;22.93;;
3733;SDS011;1882;52.256;8.874;2023-04-23T01:48:49;42.60;;;23.33;;
3733;SDS011;1882;52.256;8.874;2023-04-23T01:51:17;43.83;;;24.23;;
3733;SDS011;1882;52.256;8.874;2023-04-23T01:53:48;44.63;;;23.70;;
3733;SDS011;1882;52.256;8.874;2023-04-23T01:56:15;42.87;;;24.50;;
3733;SDS011;1882;52.256;8.874;2023-04-23T01:58:47;40.53;;;22.60;;
3733;SDS011;1882;52.256;8.874;2023-04-23T02:01:18;41.10;;;23.10;;
3733;SDS011;1882;52.256;8.874;2023-04-23T02:03:48;45.10;;;24.90;;
3733;SDS011;1882;52.256;8.874;2023-04-23T02:06:15;45.27;;;25.53;;
3733;SDS011;1882;52.256;8.874;2023-04-23T02:08:43;48.30;;;25.97;;
3733;SDS011;1882;52.256;8.874;2023-04-23T02:11:09;45.33;;;26.40;;
3733;SDS011;1882;52.256;8.874;2023-04-23T02:13:36;48.57;;;26.23;;
3733;SDS011;1882;52.256;8.874;2023-04-23T02:16:05;48.37;;;25.33;;
3733;SDS011;1882;52.256;8.874;2023-04-23T02:18:32;51.10;;;26.30;;
3733;SDS011;1882;52.256;8.874;2023-04-23T02:21:12;51.07;;;26.70;;
3733;SDS011;1882;52.256;8.874;2023-04-23T02:23:39;50.80;;;26.50;;
3733;SDS011;1882;52.256;8.874;2023-04-23T02:26:06;47.70;;;26.77;;
3733;SDS011;1882;52.256;8.874;2023-04-23T02:28:33;51.93;;;27.90;;
3733;SDS011;1882;52.256;8.874;2023-04-23T02:31:00;50.93;;;27.10;;
3733;SDS011;1882;52.256;8.874;2023-04-23T02:33:27;52.90;;;27.00;;
3733;SDS011;1882;52.256;8.874;2023-04-23T02:35:54;51.20;;;28.07;;
3733;SDS011;1882;52.256;8.874;2023-04-23T02:38:24;52.73;;;27.57;;
3733;SDS011;1882;52.256;8.874;2023-04-23T02:40:51;53.07;;;27.60;;
3733;SDS011;1882;52.256;8.874;2023-04-23T02:43:18;55.13;;;28.50;;
3733;SDS011;1882;52.256;8.874;2023-04-23T02:45:45;57.03;;;28.10;;
3733;SDS011;1882;52.256;8.874;2023-04-23T02:48:12;57.40;;;28.63;;
3733;SDS011;1882;52.256;8.874;2023-04-23T02:50:39;54.17;;;29.17;;
3733;SDS011;1882;52.256;8.874;2023-04-23T02:53:06;51.67;;;27.63;;
3733;SDS011;1882;52.256;8.874;2023-04-23T02:55:33;54.93;;;28.10;;
3733;SDS011;1882;52.256;8.874;2023-04-23T02:58:00;53.23;;;28.10;;
3733;SDS011;1882;52.256;8.874;2023-04-23T03:00:28;55.73;;;27.80;;
3733;SDS011;1882;52.256;8.874;2023-04-23T03:02:55;52.90;;;29.00;;
3733;SDS011;1882;52.256;8.874;2023-04-23T03:05:22;54.33;;;28.60;;
3733;SDS011;1882;52.256;8.874;2023-04-23T03:07:48;52.10;;;26.83;;
3733;SDS011;1882;52.256;8.874;2023-04-23T03:10:17;55.37;;;28.37;;
3733;SDS011;1882;52.256;8.874;2023-04-23T03:12:44;55.73;;;27.37;;
3733;SDS011;1882;52.256;8.874;2023-04-23T03:15:11;52.30;;;27.67;;
3733;SDS011;1882;52.256;8.874;2023-04-23T03:17:39;59.53;;;29.00;;
3733;SDS011;1882;52.256;8.874;2023-04-23T03:20:16;59.83;;;29.60;;
3733;SDS011;1882;52.256;8.874;2023-04-23T03:22:44;56.03;;;28.60;;
3733;SDS011;1882;52.256;8.874;2023-04-23T03:25:13;58.50;;;29.43;;
3733;SDS011;1882;52.256;8.874;2023-04-23T03:27:41;52.20;;;27.70;;
3733;SDS011;1882;52.256;8.874;2023-04-23T03:30:10;60.33;;;29.07;;
3733;SDS011;1882;52.256;8.874;2023-04-23T03:32:37;55.53;;;28.03;;
3733;SDS011;1882;52.256;8.874;2023-04-23T03:35:04;59.67;;;29.10;;
3733;SDS011;1882;52.256;8.874;2023-04-23T03:37:32;58.43;;;28.37;;
3733;SDS011;1882;52.256;8.874;2023-04-23T03:40:00;56.60;;;28.40;;
3733;SDS011;1882;52.256;8.874;2023-04-23T03:42:35;55.13;;;28.90;;
3733;SDS011;1882;52.256;8.874;2023-04-23T03:45:03;55.33;;;29.13;;
3733;SDS011;1882;52.256;8.874;2023-04-23T03:47:30;57.73;;;30.33;;
3733;SDS011;1882;52.256;8.874;2023-04-23T03:49:57;55.07;;;28.97;;
3733;SDS011;1882;52.256;8.874;2023-04-23T03:52:25;55.97;;;29.87;;
3733;SDS011;1882;52.256;8.874;2023-04-23T03:54:52;56.30;;;28.23;;
3733;SDS011;1882;52.256;8.874;2023-04-23T03:57:25;59.60;;;29.90;;
3733;SDS011;1882;52.256;8.874;2023-04-23T04:00:13;57.90;;;29.80;;
3733;SDS011;1882;52.256;8.874;2023-04-23T04:02:41;55.70;;;29.27;;
3733;SDS011;1882;52.256;8.874;2023-04-23T04:05:08;63.30;;;29.00;;
3733;SDS011;1882;52.256;8.874;2023-04-23T04:07:40;59.97;;;30.23;;
3733;SDS011;1882;52.256;8.874;2023-04-23T04:10:07;60.23;;;30.00;;
3733;SDS011;1882;52.256;8.874;2023-04-23T04:12:34;55.37;;;29.20;;
3733;SDS011;1882;52.256;8.874;2023-04-23T04:15:07;58.70;;;30.93;;
3733;SDS011;1882;52.256;8.874;2023-04-23T04:17:34;57.30;;;29.23;;
3733;SDS011;1882;52.256;8.874;2023-04-23T04:20:01;58.97;;;29.73;;
3733;SDS011;1882;52.256;8.874;2023-04-23T04:22:28;60.03;;;31.40;;
3733;SDS011;1882;52.256;8.874;2023-04-23T04:24:56;59.60;;;29.90;;
3733;SDS011;1882;52.256;8.874;2023-04-23T04:27:24;66.10;;;30.90;;
3733;SDS011;1882;52.256;8.874;2023-04-23T04:29:54;55.70;;;29.27;;
3733;SDS011;1882;52.256;8.874;2023-04-23T04:32:21;59.87;;;30.33;;
3733;SDS011;1882;52.256;8.874;2023-04-23T04:34:53;64.47;;;31.97;;
3733;SDS011;1882;52.256;8.874;2023-04-23T04:37:20;64.50;;;30.03;;
3733;SDS011;1882;52.256;8.874;2023-04-23T04:39:47;62.40;;;31.80;;
3733;SDS011;1882;52.256;8.874;2023-04-23T04:42:14;57.60;;;30.50;;
3733;SDS011;1882;52.256;8.874;2023-04-23T04:44:42;60.07;;;30.10;;
3733;SDS011;1882;52.256;8.874;2023-04-23T04:47:09;57.67;;;29.90;;
3733;SDS011;1882;52.256;8.874;2023-04-23T04:49:37;59.93;;;31.40;;
3733;SDS011;1882;52.256;8.874;2023-04-23T04:52:03;56.90;;;29.53;;
3733;SDS011;1882;52.256;8.874;2023-04-23T04:54:36;61.03;;;31.20;;
3733;SDS011;1882;52.256;8.874;2023-04-23T04:57:03;59.63;;;30.03;;
3733;SDS011;1882;52.256;8.874;2023-04-23T04:59:30;63.83;;;31.10;;
3733;SDS011;1882;52.256;8.874;2023-04-23T05:01:57;60.10;;;30.47;;
3733;SDS011;1882;52.256;8.874;2023-04-23T05:04:26;59.90;;;30.70;;
3733;SDS011;1882;52.256;8.874;2023-04-23T05:06:53;62.33;;;32.07;;
3733;SDS011;1882;52.256;8.874;2023-04-23T05:09:20;66.30;;;32.83;;
3733;SDS011;1882;52.256;8.874;2023-04-23T05:11:47;62.47;;;31.47;;
3733;SDS011;1882;52.256;8.874;2023-04-23T05:14:14;61.97;;;31.70;;
3733;SDS011;1882;52.256;8.874;2023-04-23T05:16:41;62.00;;;31.27;;
3733;SDS011;1882;52.256;8.874;2023-04-23T05:19:08;58.77;;;30.47;;
3733;SDS011;1882;52.256;8.874;2023-04-23T05:21:35;63.20;;;31.90;;
3733;SDS011;1882;52.256;8.874;2023-04-23T05:24:02;59.20;;;29.57;;
3733;SDS011;1882;52.256;8.874;2023-04-23T05:26:29;65.83;;;30.30;;
3733;SDS011;1882;52.256;8.874;2023-04-23T05:28:56;57.67;;;30.40;;
3733;SDS011;1882;52.256;8.874;2023-04-23T05:31:23;60.83;;;30.30;;
3733;SDS011;1882;52.256;8.874;2023-04-23T05:33:53;61.30;;;30.60;;
3733;SDS011;1882;52.256;8.874;2023-04-23T05:36:20;57.70;;;30.93;;
3733;SDS011;1882;52.256;8.874;2023-04-23T05:38:47;55.13;;;29.20;;
3733;SDS011;1882;52.256;8.874;2023-04-23T05:41:14;59.70;;;30.83;;
3733;SDS011;1882;52.256;8.874;2023-04-23T05:43:41;64.13;;;31.77;;
3733;SDS011;1882;52.256;8.874;2023-04-23T05:46:08;62.27;;;32.40;;
3733;SDS011;1882;52.256;8.874;2023-04-23T05:48:35;64.23;;;32.10;;
3733;SDS011;1882;52.256;8.874;2023-04-23T05:51:01;67.47;;;33.23;;
3733;SDS011;1882;52.256;8.874;2023-04-23T05:53:29;66.83;;;32.77;;
3733;SDS011;1882;52.256;8.874;2023-04-23T05:55:56;63.40;;;31.70;;
3733;SDS011;1882;52.256;8.874;2023-04-23T05:58:23;59.43;;;30.50;;
3733;SDS011;1882;52.256;8.874;2023-04-23T06:00:50;63.67;;;31.33;;
3733;SDS011;1882;52.256;8.874;2023-04-23T06:03:18;61.27;;;31.40;;
3733;SDS011;1882;52.256;8.874;2023-04-23T06:05:46;67.67;;;31.20;;
3733;SDS011;1882;52.256;8.874;2023-04-23T06:08:13;58.00;;;30.60;;
3733;SDS011;1882;52.256;8.874;2023-04-23T06:10:40;57.97;;;30.07;;
3733;SDS011;1882;52.256;8.874;2023-04-23T06:13:07;62.67;;;30.43;;
3733;SDS011;1882;52.256;8.874;2023-04-23T06:15:36;56.47;;;28.90;;
3733;SDS011;1882;52.256;8.874;2023-04-23T06:18:03;62.73;;;30.90;;
3733;SDS011;1882;52.256;8.874;2023-04-23T06:20:30;60.03;;;29.87;;
3733;SDS011;1882;52.256;8.874;2023-04-23T06:23:01;59.00;;;30.00;;
3733;SDS011;1882;52.256;8.874;2023-04-23T06:25:29;58.47;;;29.23;;
3733;SDS011;1882;52.256;8.874;2023-04-23T06:27:55;54.57;;;29.83;;
3733;SDS011;1882;52.256;8.874;2023-04-23T06:30:26;55.23;;;28.20;;
3733;SDS011;1882;52.256;8.874;2023-04-23T06:32:53;59.60;;;29.80;;
3733;SDS011;1882;52.256;8.874;2023-04-23T06:35:20;52.47;;;27.80;;
3733;SDS011;1882;52.256;8.874;2023-04-23T06:37:47;59.70;;;30.40;;
3733;SDS011;1882;52.256;8.874;2023-04-23T06:40:14;63.87;;;31.57;;
3733;SDS011;1882;52.256;8.874;2023-04-23T06:42:41;58.80;;;29.63;;
3733;SDS011;1882;52.256;8.874;2023-04-23T06:45:31;53.37;;;28.40;;
3733;SDS011;1882;52.256;8.874;2023-04-23T06:47:59;58.00;;;30.10;;
3733;SDS011;1882;52.256;8.874;2023-04-23T06:50:26;58.90;;;29.47;;
3733;SDS011;1882;52.256;8.874;2023-04-23T06:52:53;57.03;;;28.93;;
3733;SDS011;1882;52.256;8.874;2023-04-23T06:55:21;53.93;;;29.40;;
3733;SDS011;1882;52.256;8.874;2023-04-23T06:57:51;54.33;;;28.33;;
3733;SDS011;1882;52.256;8.874;2023-04-23T07:00:18;55.90;;;29.27;;
3733;SDS011;1882;52.256;8.874;2023-04-23T07:02:45;53.90;;;28.70;;
3733;SDS011;1882;52.256;8.874;2023-04-23T07:05:12;54.17;;;28.77;;
3733;SDS011;1882;52.256;8.874;2023-04-23T07:07:40;57.03;;;29.53;;
3733;SDS011;1882;52.256;8.874;2023-04-23T07:10:11;58.70;;;29.43;;
3733;SDS011;1882;52.256;8.874;2023-04-23T07:12:42;57.87;;;31.50;;
3733;SDS011;1882;52.256;8.874;2023-04-23T07:15:09;53.30;;;28.13;;
3733;SDS011;1882;52.256;8.874;2023-04-23T07:17:36;49.03;;;27.73;;
3733;SDS011;1882;52.256;8.874;2023-04-23T07:20:03;48.93;;;26.93;;
3733;SDS011;1882;52.256;8.874;2023-04-23T07:22:31;46.67;;;26.63;;
3733;SDS011;1882;52.256;8.874;2023-04-23T07:24:59;50.67;;;26.60;;
3733;SDS011;1882;52.256;8.874;2023-04-23T07:27:26;46.63;;;25.47;;
3733;SDS011;1882;52.256;8.874;2023-04-23T07:30:00;43.70;;;25.27;;
3733;SDS011;1882;52.256;8.874;2023-04-23T07:32:27;44.23;;;24.53;;
3733;SDS011;1882;52.256;8.874;2023-04-23T07:34:55;42.47;;;23.63;;
3733;SDS011;1882;52.256;8.874;2023-04-23T07:37:23;43.90;;;25.53;;
3733;SDS011;1882;52.256;8.874;2023-04-23T07:39:50;41.20;;;22.57;;
3733;SDS011;1882;52.256;8.874;2023-04-23T07:42:19;37.93;;;21.50;;
3733;SDS011;1882;52.256;8.874;2023-04-23T07:44:46;40.00;;;21.60;;
3733;SDS011;1882;52.256;8.874;2023-04-23T07:47:13;38.83;;;22.10;;
3733;SDS011;1882;52.256;8.874;2023-04-23T07:49:40;38.77;;;22.53;;
3733;SDS011;1882;52.256;8.874;2023-04-23T07:52:07;39.63;;;21.40;;
3733;SDS011;1882;52.256;8.874;2023-04-23T07:54:35;34.47;;;19.73;;
3733;SDS011;1882;52.256;8.874;2023-04-23T07:57:02;28.67;;;16.13;;
3733;SDS011;1882;52.256;8.874;2023-04-23T07:59:29;29.70;;;16.73;;
3733;SDS011;1882;52.256;8.874;2023-04-23T08:01:56;26.63;;;15.67;;
3733;SDS011;1882;52.256;8.874;2023-04-23T08:04:23;27.57;;;16.20;;
3733;SDS011;1882;52.256;8.874;2023-04-23T08:06:50;27.50;;;16.03;;
3733;SDS011;1882;52.256;8.874;2023-04-23T08:09:17;28.07;;;16.30;;
3733;SDS011;1882;52.256;8.874;2023-04-23T08:11:44;23.90;;;14.87;;
3733;SDS011;1882;52.256;8.874;2023-04-23T08:14:11;28.10;;;16.60;;
3733;SDS011;1882;52.256;8.874;2023-04-23T08:16:38;27.50;;;16.03;;
3733;SDS011;1882;52.256;8.874;2023-04-23T08:19:10;23.90;;;15.07;;
3733;SDS011;1882;52.256;8.874;2023-04-23T08:21:40;29.70;;;17.00;;
3733;SDS011;1882;52.256;8.874;2023-04-23T08:24:07;25.40;;;13.63;;
3733;SDS011;1882;52.256;8.874;2023-04-23T08:26:34;23.60;;;14.63;;
3733;SDS011;1882;52.256;8.874;2023-04-23T08:29:04;26.70;;;15.70;;
3733;SDS011;1882;52.256;8.874;2023-04-23T08:31:31;24.03;;;14.70;;
3733;SDS011;1882;52.256;8.874;2023-04-23T08:33:58;20.40;;;13.30;;
3733;SDS011;1882;52.256;8.874;2023-04-23T08:36:25;20.53;;;13.20;;
3733;SDS011;1882;52.256;8.874;2023-04-23T08:38:52;19.40;;;12.30;;
3733;SDS011;1882;52.256;8.874;2023-04-23T08:41:22;18.13;;;12.07;;
3733;SDS011;1882;52.256;8.874;2023-04-23T08:44:05;17.17;;;11.23;;
3733;SDS011;1882;52.256;8.874;2023-04-23T08:46:41;20.43;;;12.57;;
3733;SDS011;1882;52.256;8.874;2023-04-23T08:49:15;19.70;;;12.50;;
3733;SDS011;1882;52.256;8.874;2023-04-23T08:51:52;22.33;;;13.83;;
3733;SDS011;1882;52.256;8.874;2023-04-23T08:54:24;18.20;;;12.00;;
3733;SDS011;1882;52.256;8.874;2023-04-23T08:56:56;19.60;;;13.07;;
3733;SDS011;1882;52.256;8.874;2023-04-23T08:59:30;16.93;;;11.67;;
3733;SDS011;1882;52.256;8.874;2023-04-23T09:02:00;17.97;;;11.53;;
3733;SDS011;1882;52.256;8.874;2023-04-23T09:04:33;20.67;;;13.20;;
3733;SDS011;1882;52.256;8.874;2023-04-23T09:07:00;16.47;;;12.00;;
3733;SDS011;1882;52.256;8.874;2023-04-23T09:09:28;16.80;;;11.87;;
3733;SDS011;1882;52.256;8.874;2023-04-23T09:11:55;16.20;;;11.77;;
3733;SDS011;1882;52.256;8.874;2023-04-23T09:14:23;14.83;;;10.30;;
3733;SDS011;1882;52.256;8.874;2023-04-23T09:16:53;17.60;;;12.30;;
3733;SDS011;1882;52.256;8.874;2023-04-23T09:19:20;19.30;;;11.97;;
3733;SDS011;1882;52.256;8.874;2023-04-23T09:21:47;16.70;;;11.73;;
3733;SDS011;1882;52.256;8.874;2023-04-23T09:24:14;15.40;;;10.90;;
3733;SDS011;1882;52.256;8.874;2023-04-23T09:26:45;18.57;;;11.27;;
3733;SDS011;1882;52.256;8.874;2023-04-23T09:29:20;14.70;;;10.30;;
3733;SDS011;1882;52.256;8.874;2023-04-23T09:31:57;15.97;;;11.00;;
3733;SDS011;1882;52.256;8.874;2023-04-23T09:34:33;16.37;;;11.40;;
3733;SDS011;1882;52.256;8.874;2023-04-23T09:37:01;14.20;;;9.50;;
3733;SDS011;1882;52.256;8.874;2023-04-23T09:39:29;11.90;;;9.13;;
3733;SDS011;1882;52.256;8.874;2023-04-23T09:41:55;12.70;;;9.60;;
3733;SDS011;1882;52.256;8.874;2023-04-23T09:44:30;17.90;;;10.37;;
3733;SDS011;1882;52.256;8.874;2023-04-23T09:47:04;13.87;;;10.23;;
3733;SDS011;1882;52.256;8.874;2023-04-23T09:49:47;14.30;;;9.43;;
3733;SDS011;1882;52.256;8.874;2023-04-23T09:52:15;15.13;;;10.50;;
3733;SDS011;1882;52.256;8.874;2023-04-23T09:54:42;16.10;;;10.00;;
3733;SDS011;1882;52.256;8.874;2023-04-23T09:57:10;10.70;;;8.50;;
3733;SDS011;1882;52.256;8.874;2023-04-23T09:59:36;14.60;;;9.00;;
3733;SDS011;1882;52.256;8.874;2023-04-23T10:02:15;13.63;;;8.37;;
3733;SDS011;1882;52.256;8.874;2023-04-23T10:04:43;12.53;;;9.70;;
3733;SDS011;1882;52.256;8.874;2023-04-23T10:07:10;11.70;;;8.83;;
3733;SDS011;1882;52.256;8.874;2023-04-23T10:09:45;10.90;;;8.77;;
3733;SDS011;1882;52.256;8.874;2023-04-23T10:12:13;13.37;;;8.90;;
3733;SDS011;1882;52.256;8.874;2023-04-23T10:14:43;12.20;;;8.60;;
3733;SDS011;1882;52.256;8.874;2023-04-23T10:17:12;11.67;;;9.13;;
3733;SDS011;1882;52.256;8.874;2023-04-23T10:19:39;11.70;;;9.20;;
3733;SDS011;1882;52.256;8.874;2023-04-23T10:22:09;15.17;;;9.93;;
3733;SDS011;1882;52.256;8.874;2023-04-23T10:24:45;12.63;;;9.47;;
3733;SDS011;1882;52.256;8.874;2023-04-23T10:27:14;13.90;;;8.50;;
3733;SDS011;1882;52.256;8.874;2023-04-23T10:29:58;14.03;;;9.27;;
3733;SDS011;1882;52.256;8.874;2023-04-23T10:32:26;12.17;;;8.20;;
3733;SDS011;1882;52.256;8.874;2023-04-23T10:34:53;15.20;;;11.00;;
3733;SDS011;1882;52.256;8.874;2023-04-23T10:37:19;12.93;;;9.87;;
3733;SDS011;1882;52.256;8.874;2023-04-23T10:39:49;13.57;;;9.37;;
3733;SDS011;1882;52.256;8.874;2023-04-23T10:42:19;13.33;;;9.77;;
3733;SDS011;1882;52.256;8.874;2023-04-23T10:44:47;10.13;;;8.10;;
3733;SDS011;1882;52.256;8.874;2023-04-23T10:47:17;10.20;;;7.97;;
3733;SDS011;1882;52.256;8.874;2023-04-23T10:49:46;11.77;;;7.53;;
3733;SDS011;1882;52.256;8.874;2023-04-23T10:52:14;13.83;;;8.20;;
3733;SDS011;1882;52.256;8.874;2023-04-23T10:54:48;11.00;;;7.83;;
3733;SDS011;1882;52.256;8.874;2023-04-23T10:57:17;11.87;;;7.87;;
3733;SDS011;1882;52.256;8.874;2023-04-23T10:59:51;11.60;;;8.60;;
3733;SDS011;1882;52.256;8.874;2023-04-23T11:02:20;10.13;;;8.03;;
3733;SDS011;1882;52.256;8.874;2023-04-23T11:04:56;12.77;;;7.80;;
3733;SDS011;1882;52.256;8.874;2023-04-23T11:07:30;9.10;;;7.60;;
3733;SDS011;1882;52.256;8.874;2023-04-23T11:09:58;7.60;;;6.80;;
3733;SDS011;1882;52.256;8.874;2023-04-23T11:14:53;6.60;;;5.40;;
3733;SDS011;1882;52.256;8.874;2023-04-23T11:17:22;7.90;;;6.27;;
3733;SDS011;1882;52.256;8.874;2023-04-23T11:22:39;9.10;;;6.50;;
3733;SDS011;1882;52.256;8.874;2023-04-23T11:25:08;8.03;;;5.73;;
3733;SDS011;1882;52.256;8.874;2023-04-23T11:27:40;7.00;;;5.77;;
3733;SDS011;1882;52.256;8.874;2023-04-23T11:32:39;8.07;;;6.30;;
3733;SDS011;1882;52.256;8.874;2023-04-23T11:35:07;7.53;;;5.83;;
3733;SDS011;1882;52.256;8.874;2023-04-23T11:37:38;7.97;;;5.83;;
3733;SDS011;1882;52.256;8.874;2023-04-23T11:40:06;7.57;;;5.77;;
3733;SDS011;1882;52.256;8.874;2023-04-23T11:42:45;6.90;;;5.50;;
3733;SDS011;1882;52.256;8.874;2023-04-23T11:47:50;8.70;;;6.10;;
3733;SDS011;1882;52.256;8.874;2023-04-23T11:50:23;6.83;;;6.00;;
3733;SDS011;1882;52.256;8.874;2023-04-23T11:53:05;7.00;;;5.90;;
3733;SDS011;1882;52.256;8.874;2023-04-23T11:55:35;6.13;;;5.53;;
3733;SDS011;1882;52.256;8.874;2023-04-23T11:58:03;10.60;;;5.57;;
3733;SDS011;1882;52.256;8.874;2023-04-23T12:00:34;13.20;;;5.10;;
3733;SDS011;1882;52.256;8.874;2023-04-23T12:03:02;12.30;;;5.33;;
3733;SDS011;1882;52.256;8.874;2023-04-23T12:05:35;14.30;;;5.70;;
3733;SDS011;1882;52.256;8.874;2023-04-23T12:13:27;11.90;;;6.23;;
3733;SDS011;1882;52.256;8.874;2023-04-23T12:16:02;9.37;;;5.70;;
3733;SDS011;1882;52.256;8.874;2023-04-23T12:18:31;5.77;;;4.77;;
3733;SDS011;1882;52.256;8.874;2023-04-23T12:21:12;6.60;;;4.73;;
3733;SDS011;1882;52.256;8.874;2023-04-23T12:23:40;7.17;;;5.17;;
3733;SDS011;1882;52.256;8.874;2023-04-23T12:26:10;9.40;;;5.70;;
3733;SDS011;1882;52.256;8.874;2023-04-23T12:28:55;6.67;;;5.20;;
3733;SDS011;1882;52.256;8.874;2023-04-23T12:31:25;6.67;;;4.57;;
3733;SDS011;1882;52.256;8.874;2023-04-23T12:33:57;5.60;;;4.47;;
3733;SDS011;1882;52.256;8.874;2023-04-23T12:36:28;5.50;;;4.33;;
3733;SDS011;1882;52.256;8.874;2023-04-23T12:42:04;7.63;;;4.33;;
3733;SDS011;1882;52.256;8.874;2023-04-23T12:44:38;4.70;;;4.13;;
3733;SDS011;1882;52.256;8.874;2023-04-23T12:47:08;5.63;;;4.20;;
3733;SDS011;1882;52.256;8.874;2023-04-23T12:49:41;3.87;;;3.53;;
3733;SDS011;1882;52.256;8.874;2023-04-23T12:52:09;7.33;;;3.83;;
3733;SDS011;1882;52.256;8.874;2023-04-23T12:54:39;5.50;;;3.70;;
3733;SDS011;1882;52.256;8.874;2023-04-23T12:57:06;4.53;;;3.57;;
3733;SDS011;1882;52.256;8.874;2023-04-23T12:59:37;2.70;;;2.33;;
3733;SDS011;1882;52.256;8.874;2023-04-23T13:02:05;3.10;;;2.67;;
3733;SDS011;1882;52.256;8.874;2023-04-23T13:04:33;4.93;;;3.10;;
3733;SDS011;1882;52.256;8.874;2023-04-23T13:07:01;2.60;;;2.40;;
3733;SDS011;1882;52.256;8.874;2023-04-23T13:09:36;5.23;;;2.37;;
3733;SDS011;1882;52.256;8.874;2023-04-23T13:12:03;3.60;;;2.47;;
3733;SDS011;1882;52.256;8.874;2023-04-23T13:14:32;3.00;;;2.40;;
3733;SDS011;1882;52.256;8.874;2023-04-23T13:17:03;2.93;;;2.40;;
3733;SDS011;1882;52.256;8.874;2023-04-23T13:19:32;2.87;;;2.00;;
3733;SDS011;1882;52.256;8.874;2023-04-23T13:22:01;2.50;;;2.10;;
3733;SDS011;1882;52.256;8.874;2023-04-23T13:24:37;2.63;;;1.83;;
3733;SDS011;1882;52.256;8.874;2023-04-23T13:27:04;2.03;;;1.83;;
3733;SDS011;1882;52.256;8.874;2023-04-23T13:29:31;2.10;;;1.90;;
3733;SDS011;1882;52.256;8.874;2023-04-23T13:32:12;1.90;;;1.80;;
3733;SDS011;1882;52.256;8.874;2023-04-23T13:34:39;2.00;;;1.90;;
3733;SDS011;1882;52.256;8.874;2023-04-23T13:37:06;2.23;;;2.03;;
3733;SDS011;1882;52.256;8.874;2023-04-23T13:39:35;3.10;;;1.90;;
3733;SDS011;1882;52.256;8.874;2023-04-23T13:42:05;2.03;;;1.80;;
3733;SDS011;1882;52.256;8.874;2023-04-23T13:44:35;2.33;;;1.80;;
3733;SDS011;1882;52.256;8.874;2023-04-23T13:47:02;1.93;;;1.77;;
3733;SDS011;1882;52.256;8.874;2023-04-23T13:49:30;2.40;;;2.10;;
3733;SDS011;1882;52.256;8.874;2023-04-23T13:51:59;5.47;;;1.90;;
3733;SDS011;1882;52.256;8.874;2023-04-23T13:54:32;1.90;;;1.80;;
3733;SDS011;1882;52.256;8.874;2023-04-23T13:56:59;2.30;;;2.07;;
3733;SDS011;1882;52.256;8.874;2023-04-23T13:59:27;2.00;;;1.80;;
3733;SDS011;1882;52.256;8.874;2023-04-23T14:01:57;5.53;;;2.10;;
3733;SDS011;1882;52.256;8.874;2023-04-23T14:04:24;2.70;;;1.83;;
3733;SDS011;1882;52.256;8.874;2023-04-23T14:06:52;3.10;;;1.90;;
3733;SDS011;1882;52.256;8.874;2023-04-23T14:09:19;2.77;;;2.10;;
3733;SDS011;1882;52.256;8.874;2023-04-23T14:11:48;2.63;;;1.73;;
3733;SDS011;1882;52.256;8.874;2023-04-23T14:14:17;2.60;;;2.40;;
3733;SDS011;1882;52.256;8.874;2023-04-23T14:16:45;2.33;;;2.00;;
3733;SDS011;1882;52.256;8.874;2023-04-23T14:19:12;3.13;;;2.17;;
3733;SDS011;1882;52.256;8.874;2023-04-23T14:21:40;2.20;;;1.80;;
3733;SDS011;1882;52.256;8.874;2023-04-23T14:24:07;2.20;;;2.00;;
3733;SDS011;1882;52.256;8.874;2023-04-23T14:26:36;2.10;;;2.00;;
3733;SDS011;1882;52.256;8.874;2023-04-23T14:29:17;3.30;;;2.10;;
3733;SDS011;1882;52.256;8.874;2023-04-23T14:31:57;2.97;;;2.30;;
3733;SDS011;1882;52.256;8.874;2023-04-23T14:34:23;2.53;;;2.30;;
3733;SDS011;1882;52.256;8.874;2023-04-23T14:36:51;3.20;;;2.50;;
3733;SDS011;1882;52.256;8.874;2023-04-23T14:39:25;3.23;;;2.63;;
3733;SDS011;1882;52.256;8.874;2023-04-23T14:41:52;3.40;;;2.40;;
3733;SDS011;1882;52.256;8.874;2023-04-23T14:44:19;5.10;;;2.57;;
3733;SDS011;1882;52.256;8.874;2023-04-23T14:46:48;3.10;;;2.90;;
3733;SDS011;1882;52.256;8.874;2023-04-23T14:49:18;3.40;;;2.50;;
3733;SDS011;1882;52.256;8.874;2023-04-23T14:51:47;2.93;;;2.50;;
3733;SDS011;1882;52.256;8.874;2023-04-23T14:54:16;2.87;;;2.57;;
3733;SDS011;1882;52.256;8.874;2023-04-23T14:56:43;3.60;;;2.37;;
3733;SDS011;1882;52.256;8.874;2023-04-23T14:59:11;2.80;;;2.30;;
3733;SDS011;1882;52.256;8.874;2023-04-23T15:01:40;4.97;;;2.30;;
3733;SDS011;1882;52.256;8.874;2023-04-23T15:04:10;3.00;;;2.60;;
3733;SDS011;1882;52.256;8.874;2023-04-23T15:06:38;2.80;;;2.10;;
3733;SDS011;1882;52.256;8.874;2023-04-23T15:09:07;2.70;;;2.50;;
3733;SDS011;1882;52.256;8.874;2023-04-23T15:11:35;3.57;;;2.33;;
3733;SDS011;1882;52.256;8.874;2023-04-23T15:14:23;3.87;;;2.77;;
3733;SDS011;1882;52.256;8.874;2023-04-23T15:16:59;6.50;;;2.73;;
3733;SDS011;1882;52.256;8.874;2023-04-23T15:19:26;2.60;;;2.40;;
3733;SDS011;1882;52.256;8.874;2023-04-23T15:21:53;2.70;;;2.40;;
3733;SDS011;1882;52.256;8.874;2023-04-23T15:24:21;4.80;;;2.70;;